createdAt,value
2024-04-25T00:04:58.584Z,97111.16
2024-04-25T00:10:00.452Z,97108.16
2024-04-25T00:15:02.309Z,97105.09
2024-04-25T00:20:05.671Z,97091.06
2024-04-25T00:25:08.863Z,97104.25
2024-04-25T00:30:11.000Z,97092.88
2024-04-25T00:35:12.842Z,97077.25
2024-04-25T00:40:14.699Z,97083.25
2024-04-25T00:45:16.765Z,97080.56
2024-04-25T00:50:19.811Z,97081.94
2024-04-25T00:55:21.757Z,97075.84
2024-04-25T01:00:25.074Z,97074.47
2024-04-25T01:05:28.753Z,97073.06
2024-04-25T01:10:30.628Z,97073.06
2024-04-25T01:15:32.623Z,97061.00
2024-04-25T01:20:36.367Z,97060.66
2024-04-25T01:25:39.767Z,97053.53
2024-04-25T01:30:41.972Z,97053.09
2024-04-25T01:35:46.458Z,97059.31
2024-04-25T01:40:48.324Z,97055.19
2024-04-25T01:45:50.197Z,97054.91
2024-04-25T01:50:52.015Z,97049.13
2024-04-25T01:55:54.826Z,97050.59
2024-04-25T02:00:56.827Z,97050.53
2024-04-25T02:05:59.122Z,97039.13
2024-04-25T02:11:01.056Z,97050.13
2024-04-25T02:16:03.099Z,97040.16
2024-04-25T02:21:23.686Z,97048.97
2024-04-25T02:26:25.544Z,97040.03
2024-04-25T02:31:33.043Z,97038.09
2024-04-25T02:36:37.512Z,97037.44
2024-04-25T02:41:39.393Z,97041.75
2024-04-25T02:46:41.232Z,97049.13
2024-04-25T02:51:43.151Z,97043.88
2024-04-25T02:56:45.098Z,97047.78
2024-04-25T03:01:46.929Z,97034.69
2024-04-25T03:06:48.785Z,97040.06
2024-04-25T03:11:50.667Z,97037.28
2024-04-25T03:16:52.566Z,97041.31
2024-04-25T03:21:54.420Z,97036.22
2024-04-25T03:26:56.263Z,97033.75
2024-04-25T03:31:58.112Z,97036.81
2024-04-25T03:37:00.039Z,97028.16
2024-04-25T03:42:03.312Z,97035.72
2024-04-25T03:47:05.311Z,97044.03
2024-04-25T03:52:07.369Z,97040.19
2024-04-25T03:57:09.288Z,97037.50
2024-04-25T04:02:11.160Z,97042.56
2024-04-25T04:07:12.986Z,97043.97
2024-04-25T04:12:15.746Z,97043.78
2024-04-25T04:17:17.628Z,97048.88
2024-04-25T04:22:19.447Z,97056.63
2024-04-25T04:27:21.307Z,97055.91
2024-04-25T04:32:25.110Z,97056.03
2024-04-25T04:37:27.044Z,97063.84
2024-04-25T04:42:29.347Z,97062.38
2024-04-25T04:47:32.923Z,97062.44
2024-04-25T04:52:35.492Z,97063.31
2024-04-25T04:57:38.117Z,97067.97
2024-04-25T05:02:40.591Z,97065.44
2024-04-25T05:07:42.939Z,97068.59
2024-04-25T05:12:44.956Z,97070.13
2024-04-25T05:17:47.291Z,97064.47
2024-04-25T05:22:49.731Z,97059.66
2024-04-25T05:27:53.426Z,97064.63
2024-04-25T05:32:55.890Z,97071.50
2024-04-25T05:37:58.346Z,97072.34
2024-04-25T05:43:00.816Z,97072.41
2024-04-25T05:48:03.336Z,97077.00
2024-04-25T05:53:06.163Z,97077.38
2024-04-25T05:58:08.234Z,97084.72
2024-04-25T06:03:10.546Z,97081.72
2024-04-25T06:08:13.010Z,97087.16
2024-04-25T06:13:15.323Z,97086.09
2024-04-25T06:18:17.651Z,97091.13
2024-04-25T06:23:19.660Z,97098.44
2024-04-25T06:28:21.489Z,97109.53
2024-04-25T06:33:23.386Z,97120.19
2024-04-25T06:38:25.268Z,97117.78
2024-04-25T06:43:27.141Z,97117.19
2024-04-25T06:48:29.741Z,97122.72
2024-04-25T06:53:32.179Z,97118.50
2024-04-25T06:58:34.202Z,97113.50
2024-04-25T07:03:36.052Z,97114.66
2024-04-25T07:08:38.101Z,97122.44
2024-04-25T07:13:39.951Z,97124.41
2024-04-25T07:18:42.169Z,97132.25
2024-04-25T07:23:44.054Z,97141.16
2024-04-25T07:28:45.928Z,97138.03
2024-04-25T07:33:47.915Z,97145.13
2024-04-25T07:38:50.307Z,97151.34
2024-04-25T07:43:52.189Z,97147.56
2024-04-25T07:48:54.513Z,97149.59
2024-04-25T07:53:56.426Z,97145.94
2024-04-25T07:58:58.685Z,97149.19
2024-04-25T08:04:01.305Z,97155.34
2024-04-25T08:09:03.818Z,97151.94
2024-04-25T08:14:05.658Z,97150.72
2024-04-25T08:19:07.959Z,97149.44
2024-04-25T08:24:09.856Z,97145.19
2024-04-25T08:29:11.795Z,97153.25
2024-04-25T08:34:14.595Z,97147.97
2024-04-25T08:39:16.524Z,97151.34
2024-04-25T08:44:18.540Z,97142.66
2024-04-25T08:49:24.080Z,97130.66
2024-04-25T08:54:25.925Z,97140.38
2024-04-25T08:59:27.936Z,97143.28
2024-04-25T09:04:31.154Z,97137.69
2024-04-25T09:09:33.115Z,97143.00
2024-04-25T09:14:34.988Z,97147.41
2024-04-25T09:19:36.931Z,97164.03
2024-04-25T09:24:38.748Z,97165.28
2024-04-25T09:29:42.089Z,97161.47
2024-04-25T09:34:44.007Z,97154.69
2024-04-25T09:39:51.797Z,97148.44
2024-04-25T09:45:00.820Z,97152.94
2024-04-25T09:50:15.125Z,97141.72
2024-04-25T09:55:22.644Z,97139.75
2024-04-25T10:00:25.310Z,97139.56
2024-04-25T10:05:27.943Z,97148.03
2024-04-25T10:10:29.936Z,97164.66
2024-04-25T10:15:33.105Z,97149.06
2024-04-25T10:20:34.967Z,97155.84
2024-04-25T10:25:36.922Z,97147.88
2024-04-25T10:30:38.731Z,97148.84
2024-04-25T10:35:40.965Z,97141.66
2024-04-25T10:40:42.846Z,97146.06
2024-04-25T10:45:44.826Z,97127.91
2024-04-25T10:50:46.917Z,97125.97
2024-04-25T10:55:49.002Z,97138.63
2024-04-25T11:00:50.860Z,97125.91
2024-04-25T11:05:52.812Z,97126.72
2024-04-25T11:10:54.694Z,97132.25
2024-04-25T11:15:57.668Z,97128.06
2024-04-25T11:21:00.405Z,97124.19
2024-04-25T11:26:03.896Z,97126.84
2024-04-25T11:31:07.574Z,97128.75
2024-04-25T11:36:09.611Z,97135.59
2024-04-25T11:41:11.503Z,97138.66
2024-04-25T11:46:13.686Z,97140.28
2024-04-25T11:51:15.565Z,97151.38
2024-04-25T11:56:17.536Z,97146.66
2024-04-25T12:01:19.599Z,97147.38
2024-04-25T12:06:24.345Z,97139.19
2024-04-25T12:11:30.363Z,97143.28
2024-04-25T12:16:32.304Z,97134.94
2024-04-25T12:21:34.346Z,97134.31
2024-04-25T12:26:37.278Z,97152.25
2024-04-25T12:31:39.270Z,97137.13
2024-04-25T12:36:41.086Z,97132.88
2024-04-25T12:41:42.989Z,97132.88
2024-04-25T12:46:44.917Z,97149.94
2024-04-25T12:51:46.795Z,97140.25
2024-04-25T12:56:48.684Z,97134.41
2024-04-25T13:01:50.733Z,97128.97
2024-04-25T13:06:52.597Z,97125.09
2024-04-25T13:11:54.558Z,97117.28
2024-04-25T13:16:56.411Z,97133.94
2024-04-25T13:21:58.257Z,97131.94
2024-04-25T13:27:03.125Z,97132.72
2024-04-25T13:32:08.196Z,97139.78
2024-04-25T13:37:10.778Z,97137.50
2024-04-25T13:42:13.623Z,97142.91
2024-04-25T13:47:15.686Z,97142.09
2024-04-25T13:52:17.592Z,97139.78
2024-04-25T13:57:19.444Z,97141.38
2024-04-25T14:02:21.346Z,97156.91
2024-04-25T14:07:23.248Z,97167.81
2024-04-25T14:12:28.628Z,97170.88
2024-04-25T14:17:31.580Z,97186.72
2024-04-25T14:22:36.361Z,97181.31
2024-04-25T14:27:56.681Z,97180.13
2024-04-25T14:32:58.632Z,97184.81
2024-04-25T14:38:00.757Z,97180.16
2024-04-25T14:43:02.720Z,97184.81
2024-04-25T14:48:04.816Z,97182.91
2024-04-25T14:53:08.349Z,97186.38
2024-04-25T14:58:10.484Z,97189.41
2024-04-25T15:03:12.899Z,97207.84
2024-04-25T15:08:17.094Z,97198.50
2024-04-25T15:13:23.725Z,97200.03
2024-04-25T15:18:26.577Z,97212.81
2024-04-25T15:23:28.834Z,97212.84
2024-04-25T15:28:32.900Z,97217.53
2024-04-25T15:33:36.848Z,97227.97
2024-04-25T15:38:39.186Z,97235.69
2024-04-25T15:43:41.268Z,97256.44
2024-04-25T15:48:43.687Z,97247.97
2024-04-25T15:53:45.679Z,97253.69
2024-04-25T15:58:48.318Z,97246.44
2024-04-25T16:03:50.851Z,97246.34
2024-04-25T16:08:52.953Z,97240.69
2024-04-25T16:13:55.899Z,97225.97
2024-04-25T16:18:58.223Z,97231.59
2024-04-25T16:24:00.269Z,97228.81
2024-04-25T16:29:02.373Z,97219.50
2024-04-25T16:34:04.861Z,97227.06
2024-04-25T16:39:07.273Z,97223.97
2024-04-25T16:44:09.513Z,97223.31
2024-04-25T16:49:12.876Z,97235.13
2024-04-25T16:54:15.215Z,97245.28
2024-04-25T16:59:17.553Z,97254.47
2024-04-25T17:04:19.653Z,97265.88
2024-04-25T17:09:27.686Z,97260.44
2024-04-25T17:14:31.796Z,97274.00
2024-04-25T17:19:33.883Z,97289.06
2024-04-25T17:24:36.035Z,97303.31
2024-04-25T17:29:41.847Z,97300.16
2024-04-25T17:34:44.547Z,97303.16
2024-04-25T17:39:47.653Z,97291.84
2024-04-25T17:44:51.938Z,97282.81
2024-04-25T17:49:53.928Z,97283.19
2024-04-25T17:55:00.751Z,97280.78
2024-04-25T18:00:03.313Z,97280.97
2024-04-25T18:05:07.109Z,97280.84
2024-04-25T18:10:09.795Z,97295.25
2024-04-25T18:15:12.055Z,97300.78
2024-04-25T18:20:14.702Z,97288.91
2024-04-25T18:25:16.815Z,97299.94
2024-04-25T18:30:18.724Z,97290.56
2024-04-25T18:35:20.671Z,97297.50
2024-04-25T18:40:22.626Z,97304.63
2024-04-25T18:45:24.773Z,97306.03
2024-04-25T18:50:26.594Z,97311.28
2024-04-25T18:55:28.483Z,97322.22
2024-04-25T19:00:30.767Z,97329.09
2024-04-25T19:05:32.788Z,97327.84
2024-04-25T19:10:34.691Z,97329.53
2024-04-25T19:15:36.706Z,97335.41
2024-04-25T19:20:39.069Z,97330.31
2024-04-25T19:25:40.875Z,97339.00
2024-04-25T19:30:42.821Z,97342.72
2024-04-25T19:35:48.907Z,97334.00
2024-04-25T19:40:50.950Z,97336.84
2024-04-25T19:45:52.803Z,97337.03
2024-04-25T19:50:54.803Z,97345.63
2024-04-25T19:55:57.130Z,97347.75
2024-04-25T20:00:58.966Z,97346.75
2024-04-25T20:06:02.622Z,97352.69
2024-04-25T20:11:04.685Z,97341.75
2024-04-25T20:16:06.849Z,97331.69
2024-04-25T20:21:09.459Z,97340.63
2024-04-25T20:26:12.608Z,97343.41
2024-04-25T20:31:16.242Z,97343.47
2024-04-25T20:36:18.208Z,97346.75
2024-04-25T20:41:22.033Z,97349.88
2024-04-25T20:46:24.385Z,97343.72
2024-04-25T20:51:26.821Z,97349.56
2024-04-25T20:56:28.789Z,97355.06
2024-04-25T21:01:30.640Z,97352.53
2024-04-25T21:06:32.570Z,97353.47
2024-04-25T21:11:34.857Z,97343.63
2024-04-25T21:16:44.232Z,97342.50
2024-04-25T21:21:48.848Z,97348.88
2024-04-25T21:26:50.851Z,97349.72
2024-04-25T21:31:55.629Z,97344.97
2024-04-25T21:36:57.506Z,97351.13
2024-04-25T21:41:59.338Z,97348.03
2024-04-25T21:47:01.190Z,97354.72
2024-04-25T21:52:03.109Z,97361.78
2024-04-25T21:57:05.129Z,97363.41
2024-04-25T22:02:07.037Z,97354.94
2024-04-25T22:07:08.926Z,97359.47
2024-04-25T22:12:13.102Z,97352.19
2024-04-25T22:17:15.178Z,97351.94
2024-04-25T22:22:17.102Z,97355.22
2024-04-25T22:27:19.051Z,97349.25
2024-04-25T22:32:20.982Z,97354.56
2024-04-25T22:37:22.856Z,97357.19
2024-04-25T22:42:24.665Z,97362.16
2024-04-25T22:47:26.871Z,97364.34
2024-04-25T22:52:28.771Z,97363.22
2024-04-25T22:57:30.664Z,97360.53
2024-04-25T23:02:32.536Z,97353.72
2024-04-25T23:07:39.762Z,97355.13
2024-04-25T23:12:41.786Z,97350.28
2024-04-25T23:17:43.981Z,97345.66
2024-04-25T23:22:46.048Z,97354.53
2024-04-25T23:27:47.859Z,97361.06
2024-04-25T23:32:49.955Z,97351.00
2024-04-25T23:37:51.992Z,97361.16
2024-04-25T23:42:53.789Z,97349.16
2024-04-25T23:47:55.846Z,97354.28
2024-04-25T23:52:57.687Z,97347.75
2024-04-25T23:57:59.528Z,97345.19
